sensor_id;sensor_type;location;lat;lon;timestamp;pressure;altitude;pressure_sealevel;temperature;humidity
80139;BME280;69467;59.842;17.604;2023-10-19T00:00:40;101468.47;;;2.35;91.21
80139;BME280;69467;59.842;17.604;2023-10-19T00:03:10;101468.00;;;2.32;91.70
80139;BME280;69467;59.842;17.604;2023-10-19T00:05:37;101467.53;;;2.28;92.16
80139;BME280;69467;59.842;17.604;2023-10-19T00:08:04;101472.56;;;2.31;92.38
80139;BME280;69467;59.842;17.604;2023-10-19T00:10:52;101475.09;;;2.33;92.39
80139;BME280;69467;59.842;17.604;2023-10-19T00:13:27;101470.34;;;2.35;92.54
80139;BME280;69467;59.842;17.604;2023-10-19T00:15:55;101477.22;;;2.37;92.34
80139;BME280;69467;59.842;17.604;2023-10-19T00:18:23;101479.06;;;2.37;92.89
80139;BME280;69467;59.842;17.604;2023-10-19T00:20:51;101481.41;;;2.40;92.70
80139;BME280;69467;59.842;17.604;2023-10-19T00:23:19;101472.28;;;2.41;92.35
80139;BME280;69467;59.842;17.604;2023-10-19T00:26:05;101490.19;;;2.42;92.40
80139;BME280;69467;59.842;17.604;2023-10-19T00:28:34;101484.94;;;2.40;92.53
80139;BME280;69467;59.842;17.604;2023-10-19T00:31:04;101481.16;;;2.35;92.55
80139;BME280;69467;59.842;17.604;2023-10-19T00:33:36;101470.69;;;2.32;92.33
80139;BME280;69467;59.842;17.604;2023-10-19T00:36:07;101475.28;;;2.31;92.23
80139;BME280;69467;59.842;17.604;2023-10-19T00:38:40;101474.81;;;2.28;92.46
80139;BME280;69467;59.842;17.604;2023-10-19T00:41:15;101469.97;;;2.23;92.19
80139;BME280;69467;59.842;17.604;2023-10-19T00:43:49;101469.97;;;2.23;92.27
80139;BME280;69467;59.842;17.604;2023-10-19T00:46:18;101477.41;;;2.21;92.40
80139;BME280;69467;59.842;17.604;2023-10-19T00:48:55;101478.28;;;2.21;92.51
80139;BME280;69467;59.842;17.604;2023-10-19T00:51:32;101481.16;;;2.20;92.40
80139;BME280;69467;59.842;17.604;2023-10-19T00:54:16;101482.81;;;2.21;92.87
80139;BME280;69467;59.842;17.604;2023-10-19T00:56:47;101483.22;;;2.18;93.39
80139;BME280;69467;59.842;17.604;2023-10-19T00:59:19;101483.56;;;2.15;94.03
80139;BME280;69467;59.842;17.604;2023-10-19T01:01:55;101473.97;;;2.12;94.33
80139;BME280;69467;59.842;17.604;2023-10-19T01:04:28;101472.28;;;2.11;94.16
80139;BME280;69467;59.842;17.604;2023-10-19T01:06:58;101456.09;;;2.11;94.05
80139;BME280;69467;59.842;17.604;2023-10-19T01:09:29;101449.19;;;2.08;94.08
80139;BME280;69467;59.842;17.604;2023-10-19T01:12:00;101451.25;;;2.06;94.17
80139;BME280;69467;59.842;17.604;2023-10-19T01:14:28;101446.03;;;2.05;94.00
80139;BME280;69467;59.842;17.604;2023-10-19T01:16:55;101441.84;;;2.02;93.94
80139;BME280;69467;59.842;17.604;2023-10-19T01:19:24;101441.22;;;2.00;94.03
80139;BME280;69467;59.842;17.604;2023-10-19T01:21:52;101437.84;;;1.98;94.31
80139;BME280;69467;59.842;17.604;2023-10-19T01:24:23;101439.72;;;1.98;94.24
80139;BME280;69467;59.842;17.604;2023-10-19T01:27:06;101442.78;;;1.95;94.20
80139;BME280;69467;59.842;17.604;2023-10-19T01:29:35;101453.78;;;1.93;94.12
80139;BME280;69467;59.842;17.604;2023-10-19T01:32:01;101450.41;;;1.91;94.04
80139;BME280;69467;59.842;17.604;2023-10-19T01:34:34;101447.06;;;1.89;94.28
80139;BME280;69467;59.842;17.604;2023-10-19T01:37:00;101444.47;;;1.81;94.51
80139;BME280;69467;59.842;17.604;2023-10-19T01:39:33;101445.69;;;1.78;94.18
80139;BME280;69467;59.842;17.604;2023-10-19T01:42:00;101441.84;;;1.72;94.69
80139;BME280;69467;59.842;17.604;2023-10-19T01:44:26;101445.97;;;1.68;95.56
80139;BME280;69467;59.842;17.604;2023-10-19T01:46:52;101443.81;;;1.64;94.85
80139;BME280;69467;59.842;17.604;2023-10-19T01:49:17;101447.72;;;1.61;95.39
80139;BME280;69467;59.842;17.604;2023-10-19T01:51:52;101450.75;;;1.58;95.93
80139;BME280;69467;59.842;17.604;2023-10-19T01:54:19;101455.16;;;1.59;95.94
80139;BME280;69467;59.842;17.604;2023-10-19T01:56:52;101448.25;;;1.56;96.02
80139;BME280;69467;59.842;17.604;2023-10-19T01:59:25;101446.78;;;1.54;96.01
80139;BME280;69467;59.842;17.604;2023-10-19T02:01:55;101451.50;;;1.52;96.14
80139;BME280;69467;59.842;17.604;2023-10-19T02:04:21;101447.31;;;1.49;95.76
80139;BME280;69467;59.842;17.604;2023-10-19T02:06:47;101451.22;;;1.47;96.06
80139;BME280;69467;59.842;17.604;2023-10-19T02:09:13;101441.44;;;1.45;96.59
80139;BME280;69467;59.842;17.604;2023-10-19T02:11:54;101449.72;;;1.44;96.61
80139;BME280;69467;59.842;17.604;2023-10-19T02:14:21;101444.53;;;1.42;96.41
80139;BME280;69467;59.842;17.604;2023-10-19T02:16:50;101444.88;;;1.39;96.75
80139;BME280;69467;59.842;17.604;2023-10-19T02:19:17;101446.94;;;1.37;96.70
80139;BME280;69467;59.842;17.604;2023-10-19T02:21:43;101451.47;;;1.37;96.82
80139;BME280;69467;59.842;17.604;2023-10-19T02:24:12;101446.28;;;1.35;96.71
80139;BME280;69467;59.842;17.604;2023-10-19T02:26:44;101453.06;;;1.31;97.18
80139;BME280;69467;59.842;17.604;2023-10-19T02:29:10;101449.91;;;1.27;96.88
80139;BME280;69467;59.842;17.604;2023-10-19T02:31:37;101440.94;;;1.27;96.98
80139;BME280;69467;59.842;17.604;2023-10-19T02:34:06;101441.97;;;1.26;97.00
80139;BME280;69467;59.842;17.604;2023-10-19T02:36:33;101444.03;;;1.24;97.06
80139;BME280;69467;59.842;17.604;2023-10-19T02:38:59;101446.72;;;1.24;97.41
80139;BME280;69467;59.842;17.604;2023-10-19T02:41:26;101445.22;;;1.21;97.43
80139;BME280;69467;59.842;17.604;2023-10-19T02:43:54;101440.00;;;1.20;97.06
80139;BME280;69467;59.842;17.604;2023-10-19T02:46:29;101442.06;;;1.18;96.88
80139;BME280;69467;59.842;17.604;2023-10-19T02:49:02;101436.19;;;1.14;96.92
80139;BME280;69467;59.842;17.604;2023-10-19T02:51:29;101440.09;;;1.11;97.41
80139;BME280;69467;59.842;17.604;2023-10-19T02:53:55;101443.78;;;1.10;96.91
80139;BME280;69467;59.842;17.604;2023-10-19T02:56:20;101432.34;;;1.08;96.97
80139;BME280;69467;59.842;17.604;2023-10-19T02:58:49;101440.44;;;1.08;97.21
80139;BME280;69467;59.842;17.604;2023-10-19T03:01:16;101433.53;;;1.06;97.38
80139;BME280;69467;59.842;17.604;2023-10-19T03:03:51;101431.84;;;1.05;97.05
80139;BME280;69467;59.842;17.604;2023-10-19T03:06:22;101433.06;;;1.02;97.16
80139;BME280;69467;59.842;17.604;2023-10-19T03:08:48;101432.59;;;0.99;97.63
80139;BME280;69467;59.842;17.604;2023-10-19T03:11:25;101434.44;;;0.98;97.58
80139;BME280;69467;59.842;17.604;2023-10-19T03:13:50;101441.69;;;0.98;97.72
80139;BME280;69467;59.842;17.604;2023-10-19T03:16:17;101437.97;;;0.99;98.15
80139;BME280;69467;59.842;17.604;2023-10-19T03:18:44;101434.44;;;0.98;98.94
80139;BME280;69467;59.842;17.604;2023-10-19T03:21:09;101420.31;;;0.96;99.72
80139;BME280;69467;59.842;17.604;2023-10-19T03:23:36;101420.31;;;0.96;100.00
80139;BME280;69467;59.842;17.604;2023-10-19T03:26:03;101403.47;;;0.94;100.00
80139;BME280;69467;59.842;17.604;2023-10-19T03:28:48;101400.13;;;0.92;100.00
80139;BME280;69467;59.842;17.604;2023-10-19T03:31:13;101398.44;;;0.91;100.00
80139;BME280;69467;59.842;17.604;2023-10-19T03:33:45;101401.31;;;0.89;100.00
80139;BME280;69467;59.842;17.604;2023-10-19T03:36:17;101396.75;;;0.90;100.00
80139;BME280;69467;59.842;17.604;2023-10-19T03:38:42;101409.59;;;0.88;100.00
80139;BME280;69467;59.842;17.604;2023-10-19T03:41:09;101409.75;;;0.86;100.00
80139;BME280;69467;59.842;17.604;2023-10-19T03:43:34;101407.91;;;0.87;100.00
80139;BME280;69467;59.842;17.604;2023-10-19T03:46:03;101405.56;;;0.84;100.00
80139;BME280;69467;59.842;17.604;2023-10-19T03:48:40;101405.94;;;0.80;100.00
80139;BME280;69467;59.842;17.604;2023-10-19T03:51:05;101403.25;;;0.80;100.00
80139;BME280;69467;59.842;17.604;2023-10-19T03:53:31;101404.06;;;0.81;100.00
80139;BME280;69467;59.842;17.604;2023-10-19T03:55:58;101397.84;;;0.80;100.00
80139;BME280;69467;59.842;17.604;2023-10-19T03:58:23;101395.16;;;0.80;100.00
80139;BME280;69467;59.842;17.604;2023-10-19T04:00:49;101394.31;;;0.80;100.00
80139;BME280;69467;59.842;17.604;2023-10-19T04:03:15;101393.47;;;0.79;100.00
80139;BME280;69467;59.842;17.604;2023-10-19T04:05:43;101391.44;;;0.82;100.00
80139;BME280;69467;59.842;17.604;2023-10-19T04:08:12;101395.78;;;0.83;100.00
80139;BME280;69467;59.842;17.604;2023-10-19T04:10:45;101384.00;;;0.84;100.00
80139;BME280;69467;59.842;17.604;2023-10-19T04:13:30;101389.19;;;0.85;100.00
80139;BME280;69467;59.842;17.604;2023-10-19T04:15:56;101385.88;;;0.83;100.00
80139;BME280;69467;59.842;17.604;2023-10-19T04:18:21;101388.38;;;0.85;100.00
80139;BME280;69467;59.842;17.604;2023-10-19T04:20:50;101385.19;;;0.81;100.00
80139;BME280;69467;59.842;17.604;2023-10-19T04:23:16;101393.28;;;0.81;100.00
80139;BME280;69467;59.842;17.604;2023-10-19T04:25:41;101399.53;;;0.82;100.00
80139;BME280;69467;59.842;17.604;2023-10-19T04:28:07;101400.56;;;0.80;100.00
80139;BME280;69467;59.842;17.604;2023-10-19T04:30:32;101400.56;;;0.80;100.00
80139;BME280;69467;59.842;17.604;2023-10-19T04:32:58;101404.94;;;0.82;100.00
80139;BME280;69467;59.842;17.604;2023-10-19T04:35:26;101410.31;;;0.82;100.00
80139;BME280;69467;59.842;17.604;2023-10-19T04:37:57;101408.25;;;0.84;100.00
80139;BME280;69467;59.842;17.604;2023-10-19T04:40:22;101403.06;;;0.82;100.00
80139;BME280;69467;59.842;17.604;2023-10-19T04:42:48;101403.06;;;0.82;100.00
80139;BME280;69467;59.842;17.604;2023-10-19T04:45:14;101406.59;;;0.83;100.00
80139;BME280;69467;59.842;17.604;2023-10-19T04:47:39;101403.88;;;0.83;100.00
80139;BME280;69467;59.842;17.604;2023-10-19T04:50:05;101407.63;;;0.82;100.00
80139;BME280;69467;59.842;17.604;2023-10-19T04:52:31;101404.06;;;0.81;100.00
80139;BME280;69467;59.842;17.604;2023-10-19T04:54:58;101407.63;;;0.82;100.00
80139;BME280;69467;59.842;17.604;2023-10-19T04:57:23;101407.25;;;0.85;100.00
80139;BME280;69467;59.842;17.604;2023-10-19T04:59:49;101404.38;;;0.86;100.00
80139;BME280;69467;59.842;17.604;2023-10-19T05:02:15;101394.44;;;0.87;100.00
80139;BME280;69467;59.842;17.604;2023-10-19T05:04:40;101389.88;;;0.87;100.00
80139;BME280;69467;59.842;17.604;2023-10-19T05:07:06;101383.66;;;0.87;100.00
80139;BME280;69467;59.842;17.604;2023-10-19T05:09:35;101376.38;;;0.87;100.00
80139;BME280;69467;59.842;17.604;2023-10-19T05:12:04;101378.25;;;0.87;100.00
80139;BME280;69467;59.842;17.604;2023-10-19T05:14:29;101373.69;;;0.87;100.00
80139;BME280;69467;59.842;17.604;2023-10-19T05:16:55;101375.56;;;0.87;100.00
80139;BME280;69467;59.842;17.604;2023-10-19T05:19:20;101388.19;;;0.86;100.00
80139;BME280;69467;59.842;17.604;2023-10-19T05:21:46;101385.69;;;0.85;100.00
80139;BME280;69467;59.842;17.604;2023-10-19T05:24:11;101398.50;;;0.83;100.00
80139;BME280;69467;59.842;17.604;2023-10-19T05:26:37;101403.88;;;0.83;100.00
80139;BME280;69467;59.842;17.604;2023-10-19T05:29:02;101405.28;;;0.78;100.00
80139;BME280;69467;59.842;17.604;2023-10-19T05:31:27;101395.16;;;0.80;100.00
80139;BME280;69467;59.842;17.604;2023-10-19T05:33:53;101394.31;;;0.80;100.00
80139;BME280;69467;59.842;17.604;2023-10-19T05:36:19;101401.56;;;0.79;100.00
80139;BME280;69467;59.842;17.604;2023-10-19T05:38:44;101393.81;;;0.76;100.00
80139;BME280;69467;59.842;17.604;2023-10-19T05:41:10;101400.91;;;0.77;100.00
80139;BME280;69467;59.842;17.604;2023-10-19T05:43:36;101402.56;;;0.78;100.00
80139;BME280;69467;59.842;17.604;2023-10-19T05:46:02;101402.56;;;0.78;100.00
80139;BME280;69467;59.842;17.604;2023-10-19T05:48:27;101399.06;;;0.78;100.00
80139;BME280;69467;59.842;17.604;2023-10-19T05:50:52;101397.19;;;0.78;100.00
80139;BME280;69467;59.842;17.604;2023-10-19T05:53:18;101400.91;;;0.77;100.00
80139;BME280;69467;59.842;17.604;2023-10-19T05:55:46;101399.41;;;0.75;100.00
80139;BME280;69467;59.842;17.604;2023-10-19T05:58:11;101395.88;;;0.74;100.00
80139;BME280;69467;59.842;17.604;2023-10-19T06:00:36;101400.06;;;0.77;100.00
80139;BME280;69467;59.842;17.604;2023-10-19T06:03:03;101406.28;;;0.77;100.00
80139;BME280;69467;59.842;17.604;2023-10-19T06:05:29;101405.94;;;0.80;100.00
80139;BME280;69467;59.842;17.604;2023-10-19T06:07:56;101408.63;;;0.80;100.00
80139;BME280;69467;59.842;17.604;2023-10-19T06:10:22;101410.31;;;0.82;100.00
80139;BME280;69467;59.842;17.604;2023-10-19T06:12:48;101409.28;;;0.83;100.00
80139;BME280;69467;59.842;17.604;2023-10-19T06:15:15;101402.88;;;0.84;100.00
80139;BME280;69467;59.842;17.604;2023-10-19T06:17:42;101405.38;;;0.85;100.00
80139;BME280;69467;59.842;17.604;2023-10-19T06:20:10;101406.91;;;0.88;100.00
80139;BME280;69467;59.842;17.604;2023-10-19T06:22:55;101409.41;;;0.89;100.00
80139;BME280;69467;59.842;17.604;2023-10-19T06:25:23;101411.09;;;0.90;100.00
80139;BME280;69467;59.842;17.604;2023-10-19T06:27:49;101408.88;;;0.94;100.00
80139;BME280;69467;59.842;17.604;2023-10-19T06:30:16;101406.63;;;0.98;100.00
80139;BME280;69467;59.842;17.604;2023-10-19T06:32:48;101412.88;;;0.98;100.00
80139;BME280;69467;59.842;17.604;2023-10-19T06:35:13;101407.09;;;1.01;100.00
80139;BME280;69467;59.842;17.604;2023-10-19T06:37:39;101406.75;;;1.04;100.00
80139;BME280;69467;59.842;17.604;2023-10-19T06:40:05;101414.66;;;1.06;100.00
80139;BME280;69467;59.842;17.604;2023-10-19T06:42:31;101415.13;;;1.09;100.00
80139;BME280;69467;59.842;17.604;2023-10-19T06:44:57;101413.44;;;1.08;100.00
80139;BME280;69467;59.842;17.604;2023-10-19T06:47:22;101414.13;;;1.10;100.00
80139;BME280;69467;59.842;17.604;2023-10-19T06:49:49;101411.03;;;1.13;100.00
80139;BME280;69467;59.842;17.604;2023-10-19T06:52:15;101414.78;;;1.12;100.00
80139;BME280;69467;59.842;17.604;2023-10-19T06:54:41;101418.78;;;1.17;100.00
80139;BME280;69467;59.842;17.604;2023-10-19T06:57:06;101411.50;;;1.17;100.00
80139;BME280;69467;59.842;17.604;2023-10-19T06:59:33;101408.66;;;1.19;100.00
80139;BME280;69467;59.842;17.604;2023-10-19T07:01:59;101404.09;;;1.19;100.00
80139;BME280;69467;59.842;17.604;2023-10-19T07:04:26;101410.97;;;1.22;100.00
80139;BME280;69467;59.842;17.604;2023-10-19T07:06:52;101411.84;;;1.22;100.00
80139;BME280;69467;59.842;17.604;2023-10-19T07:09:19;101407.25;;;1.23;100.00
80139;BME280;69467;59.842;17.604;2023-10-19T07:11:44;101397.47;;;1.22;100.00
80139;BME280;69467;59.842;17.604;2023-10-19T07:14:11;101406.59;;;1.21;100.00
80139;BME280;69467;59.842;17.604;2023-10-19T07:16:39;101393.97;;;1.21;100.00
80139;BME280;69467;59.842;17.604;2023-10-19T07:19:05;101400.19;;;1.22;100.00
80139;BME280;69467;59.842;17.604;2023-10-19T07:21:30;101403.16;;;1.27;100.00
80139;BME280;69467;59.842;17.604;2023-10-19T07:24:01;101398.44;;;1.29;100.00
80139;BME280;69467;59.842;17.604;2023-10-19T07:26:30;101390.53;;;1.27;100.00
80139;BME280;69467;59.842;17.604;2023-10-19T07:28:59;101396.00;;;1.34;100.00
80139;BME280;69467;59.842;17.604;2023-10-19T07:31:24;101399.09;;;1.46;100.00
80139;BME280;69467;59.842;17.604;2023-10-19T07:33:52;101385.41;;;1.77;100.00
80139;BME280;69467;59.842;17.604;2023-10-19T07:36:21;101387.31;;;2.29;99.00
80139;BME280;69467;59.842;17.604;2023-10-19T07:38:46;101382.94;;;2.71;96.44
80139;BME280;69467;59.842;17.604;2023-10-19T07:41:13;101374.81;;;2.93;94.35
80139;BME280;69467;59.842;17.604;2023-10-19T07:43:38;101375.31;;;3.31;93.37
80139;BME280;69467;59.842;17.604;2023-10-19T07:46:04;101372.53;;;3.53;92.68
80139;BME280;69467;59.842;17.604;2023-10-19T07:48:29;101382.25;;;3.76;90.61
80139;BME280;69467;59.842;17.604;2023-10-19T07:50:55;101380.88;;;3.93;90.39
80139;BME280;69467;59.842;17.604;2023-10-19T07:53:21;101380.44;;;3.90;87.08
80139;BME280;69467;59.842;17.604;2023-10-19T07:55:46;101377.63;;;4.11;87.45
80139;BME280;69467;59.842;17.604;2023-10-19T07:58:12;101381.28;;;3.90;87.71
80139;BME280;69467;59.842;17.604;2023-10-19T08:00:37;101383.19;;;4.58;85.67
80139;BME280;69467;59.842;17.604;2023-10-19T08:03:05;101377.47;;;4.33;86.96
80139;BME280;69467;59.842;17.604;2023-10-19T08:05:31;101382.38;;;4.64;85.85
80139;BME280;69467;59.842;17.604;2023-10-19T08:07:56;101385.06;;;4.64;84.55
80139;BME280;69467;59.842;17.604;2023-10-19T08:10:26;101387.94;;;4.36;85.80
80139;BME280;69467;59.842;17.604;2023-10-19T08:12:52;101381.91;;;3.92;86.52
80139;BME280;69467;59.842;17.604;2023-10-19T08:15:18;101393.84;;;3.63;87.36
80139;BME280;69467;59.842;17.604;2023-10-19T08:17:47;101391.56;;;3.60;88.34
80139;BME280;69467;59.842;17.604;2023-10-19T08:20:13;101389.75;;;3.74;87.58
80139;BME280;69467;59.842;17.604;2023-10-19T08:22:49;101380.63;;;4.37;85.69
80139;BME280;69467;59.842;17.604;2023-10-19T08:25:15;101379.41;;;7.40;74.54
80139;BME280;69467;59.842;17.604;2023-10-19T08:27:44;101381.09;;;8.76;69.96
80139;BME280;69467;59.842;17.604;2023-10-19T08:30:20;101378.13;;;9.96;66.40
80139;BME280;69467;59.842;17.604;2023-10-19T08:32:46;101393.44;;;10.96;62.01
80139;BME280;69467;59.842;17.604;2023-10-19T08:35:14;101382.03;;;11.77;59.07
80139;BME280;69467;59.842;17.604;2023-10-19T08:37:40;101369.47;;;12.48;55.59
80139;BME280;69467;59.842;17.604;2023-10-19T08:40:10;101381.09;;;13.20;51.90
80139;BME280;69467;59.842;17.604;2023-10-19T08:42:46;101382.38;;;13.98;50.38
80139;BME280;69467;59.842;17.604;2023-10-19T08:45:12;101376.47;;;14.38;48.81
80139;BME280;69467;59.842;17.604;2023-10-19T08:50:22;101370.16;;;14.42;47.33
80139;BME280;69467;59.842;17.604;2023-10-19T08:52:52;101380.19;;;12.50;52.20
80139;BME280;69467;59.842;17.604;2023-10-19T08:55:19;101380.03;;;13.64;49.11
80139;BME280;69467;59.842;17.604;2023-10-19T08:57:47;101379.50;;;14.31;45.60
80139;BME280;69467;59.842;17.604;2023-10-19T09:00:14;101369.66;;;15.07;46.35
80139;BME280;69467;59.842;17.604;2023-10-19T09:02:43;101365.75;;;15.44;45.13
80139;BME280;69467;59.842;17.604;2023-10-19T09:05:08;101374.03;;;15.44;44.94
80139;BME280;69467;59.842;17.604;2023-10-19T09:07:34;101369.63;;;15.49;45.29
80139;BME280;69467;59.842;17.604;2023-10-19T09:09:59;101368.53;;;15.44;44.22
80139;BME280;69467;59.842;17.604;2023-10-19T09:12:26;101375.28;;;14.13;46.93
80139;BME280;69467;59.842;17.604;2023-10-19T09:14:52;101377.25;;;13.21;48.67
80139;BME280;69467;59.842;17.604;2023-10-19T09:17:28;101378.63;;;13.24;48.69
80139;BME280;69467;59.842;17.604;2023-10-19T09:19:54;101378.69;;;13.72;47.77
80139;BME280;69467;59.842;17.604;2023-10-19T09:22:21;101379.75;;;13.28;48.55
80139;BME280;69467;59.842;17.604;2023-10-19T09:24:50;101381.78;;;13.38;48.31
80139;BME280;69467;59.842;17.604;2023-10-19T09:27:19;101384.63;;;13.16;48.68
80139;BME280;69467;59.842;17.604;2023-10-19T09:29:46;101380.97;;;12.45;49.77
80139;BME280;69467;59.842;17.604;2023-10-19T09:32:12;101382.59;;;12.19;50.34
80139;BME280;69467;59.842;17.604;2023-10-19T09:34:40;101389.03;;;11.46;52.01
80139;BME280;69467;59.842;17.604;2023-10-19T09:37:09;101390.88;;;10.89;53.21
80139;BME280;69467;59.842;17.604;2023-10-19T09:39:35;101388.91;;;10.56;54.08
80139;BME280;69467;59.842;17.604;2023-10-19T09:42:08;101382.81;;;10.25;54.76
80139;BME280;69467;59.842;17.604;2023-10-19T09:44:43;101381.47;;;10.68;53.32
80139;BME280;69467;59.842;17.604;2023-10-19T09:47:17;101384.38;;;11.30;52.65
80139;BME280;69467;59.842;17.604;2023-10-19T09:49:46;101374.41;;;11.40;52.67
80139;BME280;69467;59.842;17.604;2023-10-19T09:52:15;101379.19;;;10.65;53.54
80139;BME280;69467;59.842;17.604;2023-10-19T09:57:37;101384.78;;;9.89;55.63
80139;BME280;69467;59.842;17.604;2023-10-19T10:00:05;101381.41;;;9.58;57.26
80139;BME280;69467;59.842;17.604;2023-10-19T10:02:41;101378.66;;;9.10;57.43
80139;BME280;69467;59.842;17.604;2023-10-19T10:10:51;101392.63;;;8.90;58.57
80139;BME280;69467;59.842;17.604;2023-10-19T10:15:58;101383.53;;;8.05;61.71
80139;BME280;69467;59.842;17.604;2023-10-19T10:18:29;101384.22;;;8.31;61.59
80139;BME280;69467;59.842;17.604;2023-10-19T10:23:40;101391.53;;;7.81;63.34
80139;BME280;69467;59.842;17.604;2023-10-19T10:26:06;101398.50;;;7.58;63.78
80139;BME280;69467;59.842;17.604;2023-10-19T10:28:33;101393.47;;;7.37;64.37
80139;BME280;69467;59.842;17.604;2023-10-19T10:33:49;101390.81;;;7.05;65.95
80139;BME280;69467;59.842;17.604;2023-10-19T10:36:17;101401.63;;;6.86;66.87
80139;BME280;69467;59.842;17.604;2023-10-19T10:38:48;101398.91;;;6.86;67.40
80139;BME280;69467;59.842;17.604;2023-10-19T10:41:23;101402.56;;;7.05;67.52
80139;BME280;69467;59.842;17.604;2023-10-19T10:43:54;101399.66;;;7.00;67.89
80139;BME280;69467;59.842;17.604;2023-10-19T10:46:27;101396.47;;;6.78;68.93
80139;BME280;69467;59.842;17.604;2023-10-19T10:48:54;101396.91;;;6.75;68.63
80139;BME280;69467;59.842;17.604;2023-10-19T10:51:22;101390.75;;;6.54;68.80
80139;BME280;69467;59.842;17.604;2023-10-19T10:53:53;101398.06;;;6.60;67.55
80139;BME280;69467;59.842;17.604;2023-10-19T10:56:21;101398.38;;;6.39;68.10
80139;BME280;69467;59.842;17.604;2023-10-19T10:58:47;101395.19;;;6.10;68.17
80139;BME280;69467;59.842;17.604;2023-10-19T11:01:13;101401.03;;;5.93;68.66
80139;BME280;69467;59.842;17.604;2023-10-19T11:03:39;101402.78;;;5.74;69.40
80139;BME280;69467;59.842;17.604;2023-10-19T11:06:09;101394.00;;;5.72;69.23
80139;BME280;69467;59.842;17.604;2023-10-19T11:08:36;101401.97;;;5.54;69.97
80139;BME280;69467;59.842;17.604;2023-10-19T11:11:06;101396.09;;;5.70;69.87
80139;BME280;69467;59.842;17.604;2023-10-19T11:13:32;101395.03;;;5.71;69.74
80139;BME280;69467;59.842;17.604;2023-10-19T11:16:03;101398.63;;;5.52;70.36
80139;BME280;69467;59.842;17.604;2023-10-19T11:18:36;101388.00;;;5.37;70.51
80139;BME280;69467;59.842;17.604;2023-10-19T11:21:12;101395.94;;;5.45;71.37
80139;BME280;69467;59.842;17.604;2023-10-19T11:23:49;101395.13;;;5.18;70.57
80139;BME280;69467;59.842;17.604;2023-10-19T11:26:20;101389.50;;;5.12;71.56
80139;BME280;69467;59.842;17.604;2023-10-19T11:28:46;101389.69;;;5.11;70.79
80139;BME280;69467;59.842;17.604;2023-10-19T11:31:22;101404.72;;;5.07;71.71
80139;BME280;69467;59.842;17.604;2023-10-19T11:33:49;101412.44;;;5.10;71.42
80139;BME280;69467;59.842;17.604;2023-10-19T11:36:16;101414.78;;;5.06;71.00
80139;BME280;69467;59.842;17.604;2023-10-19T11:38:43;101415.56;;;4.93;70.65
80139;BME280;69467;59.842;17.604;2023-10-19T11:41:10;101414.03;;;4.50;71.19
80139;BME280;69467;59.842;17.604;2023-10-19T11:43:35;101410.50;;;4.50;71.14
80139;BME280;69467;59.842;17.604;2023-10-19T11:46:02;101412.19;;;4.58;70.21
80139;BME280;69467;59.842;17.604;2023-10-19T11:48:30;101418.41;;;4.45;70.20
80139;BME280;69467;59.842;17.604;2023-10-19T11:50:56;101412.53;;;4.34;70.15
80139;BME280;69467;59.842;17.604;2023-10-19T11:53:21;101420.03;;;4.32;70.43
80139;BME280;69467;59.842;17.604;2023-10-19T11:55:47;101416.69;;;4.30;70.44
80139;BME280;69467;59.842;17.604;2023-10-19T11:58:14;101421.28;;;4.30;70.25
80139;BME280;69467;59.842;17.604;2023-10-19T12:00:40;101418.38;;;4.38;70.93
80139;BME280;69467;59.842;17.604;2023-10-19T12:03:12;101408.59;;;4.37;69.99
80139;BME280;69467;59.842;17.604;2023-10-19T12:05:37;101403.34;;;4.35;70.24
80139;BME280;69467;59.842;17.604;2023-10-19T12:08:03;101405.97;;;4.91;68.16
80139;BME280;69467;59.842;17.604;2023-10-19T12:10:29;101394.88;;;5.39;67.54
80139;BME280;69467;59.842;17.604;2023-10-19T12:13:04;101401.31;;;5.65;67.32
80139;BME280;69467;59.842;17.604;2023-10-19T12:15:31;101395.44;;;5.82;67.22
80139;BME280;69467;59.842;17.604;2023-10-19T12:17:58;101383.66;;;6.08;65.41
80139;BME280;69467;59.842;17.604;2023-10-19T12:20:23;101392.94;;;5.67;64.69
80139;BME280;69467;59.842;17.604;2023-10-19T12:22:49;101395.47;;;5.61;65.65
80139;BME280;69467;59.842;17.604;2023-10-19T12:25:19;101384.19;;;5.64;65.55
80139;BME280;69467;59.842;17.604;2023-10-19T12:27:44;101385.56;;;6.01;64.28
80139;BME280;69467;59.842;17.604;2023-10-19T12:30:10;101384.41;;;6.28;64.19
80139;BME280;69467;59.842;17.604;2023-10-19T12:32:44;101390.56;;;6.49;63.58
80139;BME280;69467;59.842;17.604;2023-10-19T12:35:10;101390.81;;;6.80;63.29
80139;BME280;69467;59.842;17.604;2023-10-19T12:37:37;101391.28;;;6.70;63.67
80139;BME280;69467;59.842;17.604;2023-10-19T12:40:14;101389.03;;;6.60;64.06
80139;BME280;69467;59.842;17.604;2023-10-19T12:43:00;101379.84;;;6.22;62.47
80139;BME280;69467;59.842;17.604;2023-10-19T12:45:28;101388.25;;;6.14;63.57
80139;BME280;69467;59.842;17.604;2023-10-19T12:47:54;101370.09;;;6.01;63.46
80139;BME280;69467;59.842;17.604;2023-10-19T12:50:20;101373.22;;;5.91;63.68
80139;BME280;69467;59.842;17.604;2023-10-19T12:52:51;101369.50;;;5.79;62.94
80139;BME280;69467;59.842;17.604;2023-10-19T12:55:18;101382.72;;;5.69;63.52
80139;BME280;69467;59.842;17.604;2023-10-19T12:57:43;101371.03;;;5.61;63.31
80139;BME280;69467;59.842;17.604;2023-10-19T13:00:09;101372.50;;;5.51;62.92
80139;BME280;69467;59.842;17.604;2023-10-19T13:02:54;101363.16;;;5.40;63.65
80139;BME280;69467;59.842;17.604;2023-10-19T13:05:26;101351.44;;;5.32;63.92
80139;BME280;69467;59.842;17.604;2023-10-19T13:07:53;101354.38;;;5.24;64.38
80139;BME280;69467;59.842;17.604;2023-10-19T13:10:18;101364.59;;;5.22;64.87